Latest Weather Observations for Century Mine

IDQ60801

Issued at 10:32 pm EST Sunday 29 March 2015 (issued every 30 minutes, with the page automatically refreshed every 10 minutes)

About weather observations | Map of weather stations | Latest weather observations for QLD | Other Formats
Station Details ID: 029167 Name: CENTURY MINE Lat: -18.76 Lon: 138.71 Height: 126.8 m
Data from the previous 72 hours. | See also: Recent months at Century Mine
Date/Time
EST
Temp
°C
App
Temp
°C
Dew
Point
Rel
Hum
%
Delta-T
°C
Wind Press
QNH
hPa
Press
MSL
hPa
Rain
since 9 am
mm
Dir
 
Spd
km/h
Gust
km/h
Spd
kts
Gust
kts
29/10:30pm 28.8 30.8 16.0 45 7.9 CALM 0 4 0 2 1014.3 1013.4 0.0
29/10:00pm 29.4 30.1 15.5 43 8.6 SE 6 7 3 4 1014.3 1013.4 0.0
29/09:30pm 30.2 30.5 15.1 40 9.3 SE 7 7 4 4 1014.2 1013.3 0.0
29/09:00pm 30.4 30.7 14.5 38 9.7 SSE 6 7 3 4 1013.9 1013.0 0.0
29/08:30pm 31.9 31.8 13.2 32 11.3 E 6 7 3 4 1013.6 1012.7 0.0
29/08:00pm 33.4 33.0 12.9 28 12.4 ESE 7 11 4 6 1013.3 1012.4 0.0
29/07:30pm 34.5 33.7 12.8 27 13.1 E 9 13 5 7 1012.9 1012.0 0.0
29/07:00pm 35.4 33.7 12.4 25 13.9 E 13 19 7 10 1012.6 1011.7 0.0
29/06:30pm 36.4 34.4 12.6 24 14.5 E 15 22 8 12 1012.1 1011.2 0.0
29/06:00pm 37.4 35.2 13.4 24 14.8 E 17 28 9 15 1011.9 1011.0 0.0
29/05:30pm 37.9 36.1 13.2 23 15.2 E 15 24 8 13 1011.6 1010.8 0.0
29/05:00pm 38.5 36.6 13.0 22 15.7 ESE 15 24 8 13 1011.5 1010.7 0.0
29/04:30pm 39.3 37.0 12.9 20 16.3 ENE 17 26 9 14 1011.4 1010.6 0.0
29/04:00pm 38.3 37.3 13.5 23 15.4 ESE 11 20 6 11 1011.4 1010.6 0.0
29/03:30pm 38.8 37.2 13.9 22 15.5 E 15 30 8 16 1011.5 1010.7 0.0
29/03:00pm 38.2 36.6 12.7 21 15.6 E 13 33 7 18 1011.9 1011.0 0.0
29/02:30pm 38.5 37.4 14.3 23 15.2 E 13 26 7 14 1012.1 1011.2 0.0
29/02:00pm 37.8 36.4 14.4 25 14.7 E 15 22 8 12 1012.8 1011.9 0.0
29/01:30pm 37.8 37.0 15.0 26 14.4 NE 13 22 7 12 1013.1 1012.2 0.0
29/01:00pm 38.6 38.6 16.2 26 14.4 ENE 11 26 6 14 1013.6 1012.7 0.0
29/12:30pm 37.3 37.1 15.7 27 13.7 NNE 11 19 6 10 1014.2 1013.3 0.0
29/12:00pm 36.7 36.0 16.3 30 13.1 E 15 24 8 13 1014.7 1013.8 0.0
29/11:30am 36.0 37.1 17.2 33 12.2 SE 7 17 4 9 1015.1 1014.2 0.0
29/11:00am 34.0 33.7 16.4 35 11.2 ESE 13 19 7 10 1015.4 1014.5 0.0
29/10:30am 34.5 36.3 17.3 36 11.1 ESE 4 11 2 6 1015.7 1014.8 0.0
29/10:00am 33.0 35.1 18.0 41 9.7 N 4 7 2 4 1015.7 1014.8 0.0
29/09:30am 31.9 33.9 18.8 45 8.6 ENE 6 7 3 4 1015.6 1014.7 0.0
29/09:00am 30.3 33.0 20.2 54 6.7 SSE 6 9 3 5 1015.4 1014.5 0.0
29/08:30am 28.4 32.5 20.7 63 5.1 CALM 0 0 0 0 1015.1 1014.2 0.0
29/08:00am 27.3 31.6 21.1 69 4.1 CALM 0 0 0 0 1014.9 1014.0 0.0
29/07:30am 26.6 30.8 20.9 71 3.8 CALM 0 0 0 0 1014.5 1013.6 0.0
29/07:00am 26.5 30.6 20.8 71 3.8 CALM 0 0 0 0 1014.2 1013.3 0.0
29/06:30am 26.6 29.6 20.9 71 3.8 ENE 6 7 3 4 1013.8 1012.9 0.0
29/06:00am 26.3 29.4 21.1 73 3.5 SSE 6 9 3 5 1013.1 1012.2 0.0
29/05:30am 25.8 28.7 20.6 73 3.4 SSE 6 6 3 3 1012.5 1011.6 0.0
29/05:00am 26.0 30.1 20.8 73 3.4 CALM 0 0 0 0 1012.1 1011.2 0.0
29/04:30am 26.3 30.3 20.6 71 3.8 CALM 0 0 0 0 1011.8 1010.9 0.0
29/04:00am 26.6 30.5 20.4 69 4.1 CALM 0 0 0 0 1011.9 1011.0 0.0
29/03:30am 26.9 30.4 20.3 67 4.3 S 2 6 1 3 1012.1 1011.2 0.0
29/03:00am 27.4 30.8 20.2 65 4.7 S 2 7 1 4 1012.3 1011.4 0.0
29/02:30am 28.0 31.5 19.5 60 5.5 CALM 0 0 0 0 1012.6 1011.7 0.0
29/02:00am 29.1 31.1 20.0 58 6.0 WNW 9 15 5 8 1012.7 1011.8 0.0
29/01:30am 29.3 31.3 19.9 57 6.2 NNW 9 13 5 7 1013.0 1012.1 0.0
29/01:00am 29.4 31.0 20.0 57 6.2 NW 11 15 6 8 1013.4 1012.5 0.0
29/12:30am 29.1 31.5 20.0 58 6.0 SW 7 13 4 7 1013.8 1012.9 0.0
29/12:00am 28.9 31.6 19.5 57 6.1 NW 4 7 2 4 1013.5 1012.6 0.0
 
Date/Time
EST
Temp
°C
App
Temp
°C
Dew
Point
Rel
Hum
%
Delta-T
°C
Wind Press
QNH
hPa
Press
MSL
hPa
Rain
since 9 am
mm
Dir
 
Spd
km/h
Gust
km/h
Spd
kts
Gust
kts
28/11:30pm 29.1 31.3 19.7 57 6.2 WNW 7 11 4 6 1013.5 1012.6 0.0
28/11:00pm 29.1 31.5 19.7 57 6.2 NW 6 9 3 5 1013.5 1012.6 0.0
28/10:30pm 28.8 31.2 19.7 58 6.0 NW 6 7 3 4 1013.8 1012.9 0.0
28/10:00pm 28.3 30.5 19.2 57 5.9 NE 6 9 3 5 1013.9 1013.0 0.0
28/09:30pm 28.4 30.2 18.8 56 6.2 NE 7 11 4 6 1013.8 1012.9 0.0
28/09:00pm 28.7 30.0 18.5 54 6.6 NNE 9 13 5 7 1013.6 1012.7 0.0
28/08:30pm 29.0 29.6 17.8 50 7.2 NE 11 19 6 10 1013.4 1012.5 0.0
28/08:00pm 29.6 29.9 17.8 49 7.6 NNE 13 20 7 11 1012.7 1011.8 0.0
28/07:30pm 30.6 29.6 18.0 47 8.1 NNE 20 35 11 19 1012.2 1011.3 0.0
28/07:00pm 33.8 33.6 15.7 33 11.4 NE 11 39 6 21 1011.5 1010.7 0.0
28/06:30pm 35.8 35.1 11.4 23 14.5 NE 6 9 3 5 1011.0 1010.2 0.0
28/06:00pm 36.0 35.0 10.9 22 14.9 ENE 7 9 4 5 1010.9 1010.1 0.0
28/05:30pm 36.6 34.8 10.7 21 15.3 NE 11 17 6 9 1010.6 1009.8 0.0
28/05:00pm 36.7 34.9 10.8 21 15.4 ESE 11 20 6 11 1010.4 1009.5 0.0
28/04:30pm 37.4 35.3 9.9 19 16.1 ESE 11 19 6 10 1010.2 1009.3 0.0
28/04:00pm 38.3 35.8 9.8 18 16.8 ESE 13 22 7 12 1010.5 1009.7 0.0
28/03:30pm 37.4 34.1 8.2 17 16.7 E 15 24 8 13 1010.7 1009.9 0.0
28/03:00pm 38.9 35.3 8.5 16 17.6 E 17 32 9 17 1011.1 1010.3 0.0
28/02:30pm 38.2 35.3 8.0 16 17.3 ESE 13 22 7 12 1011.3 1010.5 0.0
28/02:00pm 38.7 35.0 9.3 17 17.2 ENE 19 30 10 16 1011.8 1010.9 0.0
28/01:30pm 38.1 34.4 7.9 16 17.2 NE 17 32 9 17 1012.3 1011.4 0.0
28/01:00pm 37.5 34.0 7.4 16 17.0 ENE 15 24 8 13 1012.7 1011.8 0.0
28/12:30pm 37.3 33.9 9.0 18 16.4 E 17 28 9 15 1013.4 1012.5 0.0
28/12:00pm 36.4 32.8 8.3 18 16.0 ENE 17 30 9 16 1013.9 1013.0 0.0
28/11:30am 35.3 31.5 8.9 20 15.1 E 19 30 10 16 1014.4 1013.5 0.0
28/11:00am 34.9 30.4 7.1 18 15.4 E 20 28 11 15 1014.8 1013.9 0.0
28/10:30am 34.9 31.9 7.9 19 15.2 ESE 13 20 7 11 1015.0 1014.1 0.0
28/10:00am 32.9 29.4 5.5 18 14.7 ESE 13 19 7 10 1015.2 1014.3 0.0
28/09:30am 31.8 27.6 3.8 17 14.5 ESE 15 28 8 15 1015.1 1014.2 0.0
28/09:00am 31.0 27.5 1.4 15 14.6 SSE 9 17 5 9 1015.0 1014.1 0.0
28/08:30am 29.3 25.2 0.0 15 14.0 S 11 15 6 8 1014.7 1013.8 0.0
28/08:00am 27.6 24.1 1.2 18 12.7 S 9 17 5 9 1014.4 1013.5 0.0
28/07:30am 25.5 22.4 3.5 24 10.9 SSW 9 13 5 7 1014.1 1013.2 0.0
28/07:00am 24.0 21.0 3.9 27 9.9 SSW 9 11 5 6 1013.9 1013.0 0.0
28/06:30am 24.6 21.4 3.3 25 10.4 SSW 9 11 5 6 1013.6 1012.7 0.0
28/06:00am 24.5 21.3 3.2 25 10.4 SW 9 11 5 6 1013.4 1012.5 0.0
28/05:30am 24.6 21.8 3.3 25 10.4 SSW 7 7 4 4 1013.3 1012.4 0.0
28/05:00am 25.6 22.8 2.9 23 11.1 S 7 11 4 6 1013.1 1012.2 0.0
28/04:30am 23.6 21.2 6.8 34 8.7 SSW 9 11 5 6 1013.0 1012.1 0.0
28/04:00am 22.7 21.1 8.0 39 7.8 SSW 6 9 3 5 1013.0 1012.1 0.0
28/03:30am 23.1 22.4 6.8 35 8.4 CALM 0 0 0 0 1013.2 1012.3 0.0
28/03:00am 24.5 23.2 7.6 34 9.0 NNE 4 7 2 4 1013.3 1012.4 0.0
28/02:30am 25.1 23.0 3.7 25 10.6 S 4 7 2 4 1013.3 1012.4 0.0
28/02:00am 25.9 23.3 3.2 23 11.2 SSE 6 9 3 5 1013.7 1012.8 0.0
28/01:30am 27.1 24.3 2.2 20 12.2 SSE 6 7 3 4 1013.6 1012.7 0.0
28/01:00am 28.4 25.5 2.6 19 12.8 SSE 7 13 4 7 1013.7 1012.8 0.0
28/12:30am 29.6 26.0 2.8 18 13.5 S 11 15 6 8 1013.7 1012.8 0.0
28/12:00am 30.0 26.0 3.1 18 13.6 S 13 20 7 11 1013.8 1012.9 0.0
 
Date/Time
EST
Temp
°C
App
Temp
°C
Dew
Point
Rel
Hum
%
Delta-T
°C
Wind Press
QNH
hPa
Press
MSL
hPa
Rain
since 9 am
mm
Dir
 
Spd
km/h
Gust
km/h
Spd
kts
Gust
kts
27/11:30pm 28.2 25.4 5.1 23 12.0 SSW 9 13 5 7 1014.0 1013.1 0.0
27/11:00pm 29.7 27.1 7.6 25 12.1 SW 11 15 6 8 1014.0 1013.1 0.0
27/10:30pm 26.2 24.9 12.6 43 7.9 SW 11 15 6 8 1014.1 1013.2 0.0
27/10:00pm 26.7 26.9 12.0 40 8.5 NE 2 9 1 5 1014.0 1013.1 0.0
27/09:30pm 27.1 26.6 12.7 41 8.4 SW 7 9 4 5 1013.7 1012.8 0.0
27/09:00pm 27.6 26.9 12.0 38 9.1 SW 7 9 4 5 1013.6 1012.7 0.0
27/08:30pm 28.4 27.7 10.1 32 10.3 S 4 7 2 4 1013.3 1012.4 0.0
27/08:00pm 29.4 29.5 10.0 30 11.0 CALM 0 0 0 0 1012.9 1012.0 0.0
27/07:30pm 31.3 30.1 6.4 21 13.4 ESE 2 6 1 3 1012.5 1011.6 0.0
27/07:00pm 33.8 31.1 3.6 15 15.8 E 7 9 4 5 1012.2 1011.3 0.0
27/06:30pm 35.9 32.0 3.2 13 17.2 E 13 19 7 10 1012.0 1011.1 0.0
27/06:00pm 37.1 33.1 3.0 12 18.0 SE 13 19 7 10 1011.6 1010.8 0.0
27/05:30pm 37.8 34.3 3.5 12 18.3 E 11 17 6 9 1011.5 1010.7 0.0
27/05:00pm 38.4 34.6 4.0 12 18.6 E 13 26 7 14 1011.3 1010.5 0.0
27/04:30pm 38.0 34.2 3.7 12 18.4 ESE 13 19 7 10 1011.4 1010.6 0.0
27/04:00pm 38.1 34.7 3.8 12 18.4 ESE 11 20 6 11 1011.6 1010.8 0.0
27/03:30pm 38.0 34.2 3.7 12 18.4 E 13 22 7 12 1011.9 1011.0 0.0
27/03:00pm 38.1 34.8 2.5 11 18.7 SSE 9 28 5 15 1012.3 1011.4 0.0
27/02:30pm 37.7 33.4 3.4 12 18.3 SSE 15 30 8 16 1012.9 1012.0 0.0
27/02:00pm 37.2 33.0 1.8 11 18.3 SE 13 24 7 13 1013.4 1012.5 0.0
27/01:30pm 36.7 32.5 1.5 11 18.1 SSE 13 20 7 11 1013.9 1013.0 0.0
27/01:00pm 35.9 31.8 2.1 12 17.4 SE 13 22 7 12 1014.6 1013.7 0.0
27/12:30pm 35.2 31.0 1.5 12 17.2 ESE 13 20 7 11 1015.2 1014.3 0.0
27/12:00pm 35.1 30.5 1.5 12 17.1 ESE 15 28 8 15 1015.8 1014.9 0.0
27/11:30am 34.5 29.1 1.0 12 16.8 ESE 19 28 10 15 1016.3 1015.4 0.0
27/11:00am 33.8 28.7 0.5 12 16.5 SE 17 26 9 14 1016.6 1015.7 0.0
27/10:30am 33.1 27.3 -0.1 12 16.3 SE 20 30 11 16 1016.9 1016.0 0.0
27/10:00am 32.6 26.7 -0.5 12 16.0 SSE 20 32 11 17 1017.1 1016.2 0.0
27/09:30am 31.8 26.6 0.0 13 15.5 SSE 17 24 9 13 1017.2 1016.3 0.0
27/09:00am 31.4 26.1 -0.3 13 15.3 SSE 17 28 9 15 1017.1 1016.2 0.0
27/08:30am 30.3 26.0 0.8 15 14.4 SSE 13 20 7 11 1016.7 1015.8 0.0
27/08:00am 28.7 25.8 2.8 19 12.9 S 7 13 4 7 1016.6 1015.7 0.0
27/07:30am 26.8 23.9 4.6 24 11.3 S 9 13 5 7 1016.3 1015.4 0.0
27/07:00am 24.5 22.0 4.8 28 9.9 S 7 9 4 5 1016.1 1015.2 0.0
27/06:30am 25.3 23.1 6.0 29 10.0 S 7 9 4 5 1015.9 1015.0 0.0
27/06:00am 25.9 23.4 3.8 24 11.0 SE 6 9 3 5 1015.7 1014.8 0.0
27/05:30am 26.7 24.0 3.9 23 11.5 SSE 7 9 4 5 1015.5 1014.6 0.0
27/05:00am 27.0 24.1 2.8 21 11.9 SSE 7 9 4 5 1015.2 1014.3 0.0
27/04:30am 28.1 25.0 1.6 18 12.9 SSE 7 11 4 6 1015.0 1014.1 0.0
27/04:00am 29.0 25.8 0.7 16 13.7 S 7 11 4 6 1014.9 1014.0 0.0
27/03:30am 29.5 25.8 0.2 15 14.1 S 9 15 5 8 1014.9 1014.0 0.0
27/03:00am 29.6 25.6 0.2 15 14.1 S 11 20 6 11 1015.1 1014.2 0.0
27/02:30am 30.1 25.6 -0.3 14 14.5 S 13 20 7 11 1015.2 1014.3 0.0
27/02:00am 30.4 25.9 -0.1 14 14.6 SSE 13 20 7 11 1015.4 1014.5 0.0
27/01:30am 30.7 26.3 0.2 14 14.8 S 13 22 7 12 1015.6 1014.7 0.0
27/01:00am 31.1 26.3 0.5 14 14.9 S 15 24 8 13 1015.6 1014.7 0.0
27/12:30am 31.4 26.3 0.7 14 15.1 S 17 26 9 14 1015.9 1015.0 0.0
27/12:00am 31.6 27.0 1.8 15 14.9 S 15 20 8 11 1016.0 1015.1 0.0
 
Date/Time
EST
Temp
°C
App
Temp
°C
Dew
Point
Rel
Hum
%
Delta-T
°C
Wind Press
QNH
hPa
Press
MSL
hPa
Rain
since 9 am
mm
Dir
 
Spd
km/h
Gust
km/h
Spd
kts
Gust
kts
26/11:30pm 30.4 28.1 5.6 21 13.1 S 7 13 4 7 1016.0 1015.1 0.0
26/11:00pm 30.5 28.3 6.4 22 12.9 S 7 9 4 5 1016.1 1015.2 0.0

Other Formats:

Comma delimited format used in spreadsheet applications
http://www.bom.gov.au/fwo/IDQ60801/IDQ60801.94261.axf

JavaScript Object Notation format (JSON) in row-major order
http://www.bom.gov.au/fwo/IDQ60801/IDQ60801.94261.json